Terminal Aerodrome Forecast
Issued by NWS

Home | Current Version | Previous Version | Text Only | Print | Product List | Glossary On
Versions: 1 2 3 4 5 6 7 8 9 10 11 12 13 14 15 16 17 18 19 20 21 22 23 24 25
000
FTUS41 KILN 232340 AAB
TAFLUK
TAF AMD
KLUK 232340Z 2400/2424 34010KT P6SM VCSH OVC014
     FM240400 32006KT 5SM -DZ BR OVC009
     FM240900 30007KT P6SM OVC009
     FM241400 28006KT P6SM OVC012
     FM241900 27006KT P6SM OVC022
     FM242200 21004KT P6SM BKN035=

USA.gov is the U.S. government's official web portal to all federal, state and local government web resources and services.